Time;durP1;ratioP1;P1;durP2;ratioP2;P2;SDS_P1;SDS_P2;PMS_P1;PMS_P2;Temp;Humidity;BMP_temperature;BMP_pressure;BME280_temperature;BME280_humidity;BME280_pressure;Samples;Min_cycle;Max_cycle;Signal;HPM_P1;HPM_P2
2024/03/05 00:02:14;;;;;;;41.95;17.67;;;12.00;99.90;;;;;;5032243;28;20037;-72
2024/03/05 00:04:40;;;;;;;46.25;17.45;;;12.00;99.90;;;;;;5032359;28;20424;-72
2024/03/05 00:07:07;;;;;;;38.25;17.40;;;12.00;99.90;;;;;;5033197;28;20095;-72
2024/03/05 00:09:34;;;;;;;39.33;18.55;;;12.00;99.90;;;;;;5033428;28;20029;-72
2024/03/05 00:12:00;;;;;;;34.35;16.20;;;12.00;99.90;;;;;;5032916;28;20076;-72
2024/03/05 00:14:25;;;;;;;36.60;16.83;;;12.00;99.90;;;;;;5032505;28;20339;-72
2024/03/05 00:16:51;;;;;;;28.20;14.48;;;12.00;99.90;;;;;;5015566;28;20041;-72
2024/03/05 00:19:17;;;;;;;29.45;13.82;;;12.00;99.90;;;;;;5015939;28;20033;-72
2024/03/05 00:21:43;;;;;;;34.15;13.93;;;12.00;99.90;;;;;;5033867;28;20430;-72
2024/03/05 00:24:09;;;;;;;37.47;14.90;;;12.00;99.90;;;;;;5034013;28;20096;-73
2024/03/05 00:26:39;;;;;;;34.72;16.10;;;11.90;99.90;;;;;;5033674;28;20034;-72
2024/03/05 00:33:54;;;;;;;31.50;16.73;;;11.90;99.90;;;;;;4911580;29;20539;-72
2024/03/05 00:43:55;;;;;;;36.58;13.85;;;11.80;99.90;;;;;;4785670;29;20084;-72
2024/03/05 00:46:42;;;;;;;31.95;13.00;;;11.80;99.90;;;;;;4785678;29;20185;-72
2024/03/05 00:49:59;;;;;;;27.52;12.32;;;11.80;99.90;;;;;;4779109;29;20491;-72
2024/03/05 00:52:46;;;;;;;28.02;11.35;;;11.70;99.90;;;;;;4785018;29;20508;-72
2024/03/05 00:55:13;;;;;;;27.20;10.93;;;11.70;99.90;;;;;;4838867;29;20049;-73
2024/03/05 00:57:38;;;;;;;32.80;11.25;;;11.80;99.90;;;;;;4974140;28;20041;-72
2024/03/05 01:00:05;;;;;;;27.95;10.13;;;11.70;99.90;;;;;;5032465;28;20030;-72
2024/03/05 01:02:31;;;;;;;23.88;10.07;;;11.70;99.90;;;;;;5032473;28;20079;-72
2024/03/05 01:04:57;;;;;;;24.15;9.02;;;11.70;99.90;;;;;;5032258;28;20450;-72
2024/03/05 01:07:23;;;;;;;26.25;9.15;;;11.70;99.90;;;;;;5031682;28;20036;-72
2024/03/05 01:09:49;;;;;;;24.63;9.13;;;11.60;99.90;;;;;;5031396;28;20108;-72
2024/03/05 01:12:16;;;;;;;36.42;9.68;;;11.70;99.90;;;;;;5013891;28;20091;-72
2024/03/05 01:14:42;;;;;;;28.08;10.75;;;11.70;99.90;;;;;;5031572;28;20383;-72
2024/03/05 01:17:12;;;;;;;27.50;11.23;;;11.70;99.90;;;;;;5032087;28;20047;-72
2024/03/05 01:19:38;;;;;;;25.67;10.77;;;11.60;99.90;;;;;;5032014;28;20569;-73
2024/03/05 01:22:03;;;;;;;33.38;11.15;;;11.60;99.90;;;;;;5032006;28;20113;-72
2024/03/05 01:24:30;;;;;;;25.95;10.90;;;11.60;99.90;;;;;;5031611;28;20042;-72
2024/03/05 01:26:55;;;;;;;30.75;13.23;;;11.60;99.90;;;;;;5031248;28;20683;-72
2024/03/05 01:29:21;;;;;;;28.23;11.32;;;11.70;99.90;;;;;;5030775;28;20030;-72
2024/03/05 01:32:01;;;;;;;23.15;10.35;;;11.60;99.90;;;;;;5031054;28;20038;-72
2024/03/05 01:34:31;;;;;;;31.33;10.15;;;11.70;99.90;;;;;;5030711;28;20113;-73
2024/03/05 01:36:57;;;;;;;29.30;10.00;;;11.60;99.90;;;;;;5013007;28;20049;-72
2024/03/05 01:39:27;;;;;;;26.08;10.13;;;11.60;99.90;;;;;;5031002;28;20346;-72
2024/03/05 01:41:54;;;;;;;25.70;9.63;;;11.60;99.90;;;;;;5031213;28;20048;-73
2024/03/05 01:44:23;;;;;;;19.88;8.20;;;11.60;99.90;;;;;;5031390;28;20117;-72
2024/03/05 01:46:52;;;;;;;22.30;9.27;;;11.60;99.90;;;;;;5030783;28;20033;-72
2024/03/05 01:49:20;;;;;;;28.20;9.30;;;11.60;99.90;;;;;;5031322;28;20056;-72
2024/03/05 01:51:46;;;;;;;25.27;9.68;;;11.60;99.90;;;;;;5031440;28;20056;-72
2024/03/05 01:54:17;;;;;;;32.65;9.63;;;11.60;99.90;;;;;;5032092;28;20039;-72
2024/03/05 01:56:47;;;;;;;25.90;9.63;;;11.50;99.90;;;;;;5032371;28;20397;-72
2024/03/05 01:59:17;;;;;;;24.75;10.18;;;11.50;99.90;;;;;;5029695;28;20060;-72
2024/03/05 02:02:18;;;;;;;25.55;10.73;;;11.60;99.90;;;;;;5029413;28;20452;-72
2024/03/05 02:19:17;;;;;;;22.92;9.38;;;11.40;99.90;;;;;;4748713;30;20043;-72
2024/03/05 02:29:37;;;;;;;;;;;;;;;;;;;;;
2024/03/05 02:32:07;;;;;;;29.77;14.43;;;11.30;99.90;;;;;;4841761;29;20433;-72
2024/03/05 02:34:33;;;;;;;31.48;11.82;;;11.30;99.90;;;;;;4899692;28;20502;-72
2024/03/05 02:37:00;;;;;;;20.60;12.15;;;11.30;99.90;;;;;;4999596;28;20394;-72
2024/03/05 02:39:27;;;;;;;28.45;11.57;;;11.30;99.90;;;;;;5021779;28;20041;-72
2024/03/05 02:41:55;;;;;;;36.05;13.77;;;11.20;99.90;;;;;;5031416;28;20040;-72
2024/03/05 02:44:21;;;;;;;23.50;11.27;;;11.20;99.90;;;;;;5031712;28;20030;-72
2024/03/05 02:46:49;;;;;;;27.23;12.45;;;11.10;99.90;;;;;;5013670;28;20036;-72
2024/03/05 02:49:16;;;;;;;24.40;10.52;;;11.10;99.90;;;;;;5031295;28;20050;-72
2024/03/05 02:51:42;;;;;;;30.65;9.63;;;11.10;99.90;;;;;;5031378;28;20046;-72
2024/03/05 02:54:08;;;;;;;23.92;9.77;;;11.10;99.90;;;;;;5031428;28;20030;-72
2024/03/05 02:56:33;;;;;;;17.38;8.73;;;11.00;99.90;;;;;;5031759;28;20034;-72
2024/03/05 02:58:59;;;;;;;25.67;7.97;;;11.00;99.90;;;;;;5031513;28;20105;-72
2024/03/05 03:01:25;;;;;;;26.70;8.40;;;11.00;99.90;;;;;;5031127;28;20034;-72
2024/03/05 03:03:50;;;;;;;22.02;8.13;;;11.00;99.90;;;;;;5031170;28;20034;-72
2024/03/05 03:06:17;;;;;;;29.13;8.73;;;10.90;99.90;;;;;;5031767;28;20108;-72
2024/03/05 03:08:43;;;;;;;21.85;9.10;;;10.90;99.90;;;;;;5034985;28;20030;-72
2024/03/05 03:11:16;;;;;;;26.30;8.90;;;10.90;99.90;;;;;;5017453;28;20180;-72
2024/03/05 03:13:43;;;;;;;22.10;8.55;;;10.90;99.90;;;;;;5035057;28;20095;-72
2024/03/05 03:16:09;;;;;;;22.80;7.82;;;10.80;99.90;;;;;;5035048;28;20547;-72
2024/03/05 03:18:34;;;;;;;22.92;8.13;;;10.80;99.90;;;;;;5034628;28;20034;-72
2024/03/05 03:21:03;;;;;;;27.35;7.57;;;10.80;99.90;;;;;;5017070;28;20117;-72
2024/03/05 03:23:29;;;;;;;25.35;7.88;;;10.80;99.90;;;;;;5034574;28;20112;-72
2024/03/05 03:25:55;;;;;;;25.58;7.25;;;10.70;99.90;;;;;;5034972;28;20196;-72
2024/03/05 03:28:20;;;;;;;18.75;7.72;;;10.70;99.90;;;;;;5035349;28;20552;-72
2024/03/05 03:30:46;;;;;;;17.65;6.28;;;10.80;99.90;;;;;;5018242;28;20045;-72
2024/03/05 03:33:12;;;;;;;20.13;6.32;;;10.80;99.90;;;;;;5035548;28;20403;-72
2024/03/05 03:35:38;;;;;;;21.00;6.13;;;10.80;99.90;;;;;;5035070;28;20065;-72
2024/03/05 03:38:14;;;;;;;22.52;5.75;;;10.70;99.90;;;;;;5035257;28;20034;-73
2024/03/05 03:50:58;;;;;;;25.83;4.72;;;10.70;99.90;;;;;;4974146;28;20178;-72
2024/03/05 04:04:12;;;;;;;;;;;;;;;;;;;;;
2024/03/05 04:06:41;;;;;;;;;;;10.60;99.90;;;;;;4916299;29;20051;-72
2024/03/05 04:09:13;;;;;;;18.65;4.20;;;10.60;99.90;;;;;;4957639;28;20291;-72
2024/03/05 04:11:40;;;;;;;22.55;4.95;;;10.50;99.90;;;;;;5010077;28;20081;-73
2024/03/05 04:14:06;;;;;;;26.20;5.10;;;10.50;99.90;;;;;;5014459;28;20096;-72
2024/03/05 04:16:32;;;;;;;20.75;4.90;;;10.50;99.90;;;;;;5014481;28;20050;-72
2024/03/05 04:18:58;;;;;;;19.13;4.55;;;10.50;99.90;;;;;;5013207;28;20092;-72
2024/03/05 04:21:25;;;;;;;12.20;4.68;;;10.50;99.90;;;;;;5014172;28;20101;-72
2024/03/05 04:23:54;;;;;;;22.50;5.43;;;10.50;99.90;;;;;;5012892;28;20045;-72
2024/03/05 04:26:26;;;;;;;16.52;5.95;;;10.40;99.90;;;;;;5014026;28;20564;-72
2024/03/05 04:28:54;;;;;;;20.85;6.63;;;10.40;99.90;;;;;;5014030;28;20490;-72
2024/03/05 04:31:23;;;;;;;19.02;6.05;;;10.40;99.90;;;;;;5013630;28;20046;-72
2024/03/05 04:33:49;;;;;;;21.45;5.38;;;10.30;99.90;;;;;;5012891;28;20457;-72
2024/03/05 04:36:15;;;;;;;31.83;5.97;;;10.40;99.90;;;;;;5013943;28;20057;-72
2024/03/05 04:38:44;;;;;;;25.05;5.60;;;10.30;99.90;;;;;;5013885;28;20026;-72
2024/03/05 04:41:13;;;;;;;22.02;5.75;;;10.30;99.90;;;;;;5013684;28;20045;-72
2024/03/05 04:43:39;;;;;;;22.10;5.60;;;10.30;99.90;;;;;;5013583;28;20192;-72
2024/03/05 04:46:05;;;;;;;16.02;5.65;;;10.20;99.90;;;;;;5013139;28;20042;-72
2024/03/05 04:48:31;;;;;;;16.48;5.45;;;10.20;99.90;;;;;;5015683;28;20109;-72
2024/03/05 04:50:57;;;;;;;18.20;5.18;;;10.20;99.90;;;;;;5033453;28;20383;-72
2024/03/05 04:53:23;;;;;;;19.35;4.90;;;10.20;99.90;;;;;;5033418;28;20037;-72
2024/03/05 04:55:49;;;;;;;12.95;4.97;;;10.10;99.90;;;;;;5032765;28;20037;-72
2024/03/05 04:58:14;;;;;;;19.75;4.93;;;10.10;99.90;;;;;;5032773;28;20108;-72
2024/03/05 05:00:41;;;;;;;26.50;5.30;;;10.10;99.90;;;;;;5032938;28;20091;-72
2024/03/05 05:03:07;;;;;;;27.52;6.10;;;10.10;99.90;;;;;;5015041;28;20030;-72
2024/03/05 05:05:32;;;;;;;23.27;6.40;;;10.10;99.90;;;;;;5031333;28;20127;-73
2024/03/05 05:08:01;;;;;;;14.40;5.43;;;10.00;99.90;;;;;;5032419;28;20034;-72
2024/03/05 05:10:28;;;;;;;17.08;5.88;;;10.00;99.90;;;;;;5033139;28;20069;-72
2024/03/05 05:12:54;;;;;;;17.85;5.97;;;9.90;99.90;;;;;;5033036;28;20041;-72
2024/03/05 05:15:23;;;;;;;24.77;6.10;;;9.90;99.90;;;;;;5033072;28;20040;-72
2024/03/05 05:18:45;;;;;;;31.57;7.40;;;9.90;99.90;;;;;;5032807;28;20036;-72
2024/03/05 05:25:58;;;;;;;18.43;5.60;;;9.80;99.90;;;;;;4920316;29;20063;-72
2024/03/05 05:29:34;;;;;;;;;;;;;;;;;;;;;
2024/03/05 05:35:28;;;;;;;17.47;5.90;;;9.70;99.90;;;;;;4857799;29;20114;-72
2024/03/05 05:41:38;;;;;;;18.90;5.47;;;9.60;99.90;;;;;;4911958;29;20034;-72
2024/03/05 05:44:05;;;;;;;20.13;5.80;;;9.60;99.90;;;;;;4906357;28;20047;-72
2024/03/05 05:46:33;;;;;;;17.33;5.43;;;9.60;99.90;;;;;;4997117;28;20354;-72
2024/03/05 05:48:59;;;;;;;16.73;5.20;;;9.60;99.90;;;;;;5014671;28;20438;-72
2024/03/05 05:51:32;;;;;;;26.83;5.33;;;9.60;99.90;;;;;;5031836;28;20087;-72
2024/03/05 05:53:58;;;;;;;28.60;6.60;;;9.60;99.90;;;;;;5014413;28;20390;-73
2024/03/05 05:56:24;;;;;;;37.30;8.57;;;9.50;99.90;;;;;;5031957;28;20386;-72
2024/03/05 05:58:50;;;;;;;34.47;8.67;;;9.50;99.90;;;;;;5031576;28;20034;-72
2024/03/05 06:01:16;;;;;;;43.40;9.60;;;9.50;99.90;;;;;;5031390;28;20038;-72
2024/03/05 06:03:45;;;;;;;27.70;8.80;;;9.50;99.90;;;;;;5031216;28;20100;-72
2024/03/05 06:06:16;;;;;;;35.87;9.80;;;9.50;99.90;;;;;;5031759;28;20516;-72
2024/03/05 06:08:42;;;;;;;25.67;9.50;;;9.50;99.90;;;;;;5031879;28;20469;-72
2024/03/05 06:11:08;;;;;;;40.70;8.90;;;9.50;99.90;;;;;;5031776;28;20321;-72
2024/03/05 06:13:34;;;;;;;29.53;8.87;;;9.50;99.90;;;;;;5031641;28;20511;-72
2024/03/05 06:16:00;;;;;;;27.77;8.23;;;9.50;99.90;;;;;;5031437;28;20041;-72
2024/03/05 06:18:25;;;;;;;31.40;10.30;;;9.50;99.90;;;;;;5012107;28;20041;-72
2024/03/05 06:20:51;;;;;;;24.60;9.23;;;9.50;99.90;;;;;;5027953;28;20078;-71
2024/03/05 06:23:17;;;;;;;30.37;9.97;;;9.50;99.90;;;;;;5009645;28;20119;-72
2024/03/05 06:25:43;;;;;;;28.73;9.10;;;9.60;99.90;;;;;;5028788;28;20045;-71
2024/03/05 06:28:09;;;;;;;28.33;9.23;;;9.60;99.90;;;;;;5031386;28;20092;-72
2024/03/05 06:30:35;;;;;;;28.77;8.70;;;9.60;99.90;;;;;;5031088;28;20057;-72
2024/03/05 06:33:01;;;;;;;36.73;8.97;;;9.60;99.90;;;;;;5030605;28;20095;-72
2024/03/05 06:35:29;;;;;;;27.80;8.50;;;9.70;99.90;;;;;;5031145;28;20084;-72
2024/03/05 06:37:57;;;;;;;27.50;8.80;;;9.70;99.90;;;;;;5030650;28;20043;-72
2024/03/05 06:40:25;;;;;;;30.33;8.57;;;9.70;99.90;;;;;;5031023;28;20124;-72
2024/03/05 06:43:04;;;;;;;26.80;8.83;;;9.80;99.90;;;;;;5035343;28;20448;-72
2024/03/05 06:45:30;;;;;;;25.65;8.60;;;9.80;99.90;;;;;;5035902;28;20429;-72
2024/03/05 06:48:07;;;;;;;29.42;9.40;;;9.90;99.90;;;;;;5035301;28;20486;-72
2024/03/05 06:50:34;;;;;;;20.83;7.97;;;9.90;99.90;;;;;;5016873;28;20111;-72
2024/03/05 06:59:59;;;;;;;21.45;7.22;;;10.00;99.90;;;;;;4937322;29;20067;-72
2024/03/05 07:03:04;;;;;;;25.83;7.30;;;10.10;99.90;;;;;;4954640;29;20091;-72
2024/03/05 07:05:51;;;;;;;27.20;7.03;;;10.20;99.90;;;;;;4954749;29;20047;-72
2024/03/05 07:08:53;;;;;;;24.40;7.97;;;10.30;99.90;;;;;;4955247;29;20051;-72
2024/03/05 07:11:45;;;;;;;29.57;5.20;;;10.30;99.90;;;;;;4979394;28;21204;-73
2024/03/05 07:14:11;;;;;;;28.55;6.00;;;10.40;99.90;;;;;;4981008;28;20049;-72
2024/03/05 07:20:33;;;;;;;26.83;5.45;;;10.50;99.90;;;;;;4945646;28;20033;-72
2024/03/05 07:22:59;;;;;;;23.35;5.63;;;10.60;99.90;;;;;;5013623;28;20379;-72
2024/03/05 07:25:25;;;;;;;20.77;4.43;;;10.70;99.90;;;;;;5013723;28;20049;-71
2024/03/05 07:27:52;;;;;;;24.88;5.22;;;10.70;99.90;;;;;;5014414;28;20140;-73
2024/03/05 07:30:20;;;;;;;19.52;5.68;;;10.80;99.90;;;;;;4997757;28;20046;-73
2024/03/05 07:32:47;;;;;;;20.15;5.18;;;10.90;99.90;;;;;;5015097;28;20046;-73
2024/03/05 07:35:15;;;;;;;31.60;5.50;;;10.90;99.90;;;;;;5014676;28;20116;-72
2024/03/05 07:37:44;;;;;;;29.33;5.90;;;10.90;99.90;;;;;;4997859;28;20408;-73
2024/03/05 07:40:22;;;;;;;28.35;5.25;;;11.00;99.90;;;;;;5020013;28;20041;-73
2024/03/05 07:42:51;;;;;;;30.17;5.25;;;11.10;99.90;;;;;;5034739;28;20390;-73
2024/03/05 07:45:18;;;;;;;23.48;5.07;;;11.10;99.90;;;;;;5034537;28;20033;-73
2024/03/05 07:47:45;;;;;;;26.58;5.35;;;11.20;99.90;;;;;;5034632;28;20025;-72
2024/03/05 07:50:12;;;;;;;34.00;5.97;;;11.30;99.90;;;;;;5034207;28;20509;-73
2024/03/05 07:52:43;;;;;;;30.23;6.97;;;11.30;99.90;;;;;;5034081;28;20037;-73
2024/03/05 07:55:13;;;;;;;42.83;6.72;;;11.40;99.90;;;;;;5033912;28;20029;-73
2024/03/05 07:57:39;;;;;;;47.03;8.27;;;11.40;99.90;;;;;;5034396;28;20068;-72
2024/03/05 08:00:08;;;;;;;41.30;8.02;;;11.50;99.90;;;;;;5034400;28;20171;-73
2024/03/05 08:02:37;;;;;;;52.67;8.07;;;11.50;99.90;;;;;;5033851;28;20034;-72
2024/03/05 08:05:04;;;;;;;39.08;8.43;;;11.60;99.90;;;;;;5033744;28;20071;-73
2024/03/05 08:07:34;;;;;;;34.78;6.00;;;11.60;99.90;;;;;;5034194;28;20037;-72
2024/03/05 08:10:06;;;;;;;31.52;6.20;;;11.60;99.90;;;;;;5033918;28;20053;-72
2024/03/05 08:12:37;;;;;;;29.17;5.75;;;11.60;99.90;;;;;;5034138;28;20037;-73
2024/03/05 08:15:06;;;;;;;26.83;6.10;;;11.60;99.90;;;;;;5033952;28;20029;-73
2024/03/05 08:17:36;;;;;;;24.25;5.97;;;11.70;99.90;;;;;;5033842;28;20084;-73
2024/03/05 08:20:03;;;;;;;25.92;5.13;;;11.70;99.90;;;;;;5034570;28;20034;-73
2024/03/05 08:22:29;;;;;;;27.33;5.78;;;11.80;99.90;;;;;;5034474;28;20045;-73
2024/03/05 08:24:55;;;;;;;27.55;5.20;;;11.80;99.90;;;;;;5034122;28;20055;-72
2024/03/05 08:27:21;;;;;;;21.83;5.07;;;11.80;99.90;;;;;;5033778;28;20045;-72
2024/03/05 08:30:25;;;;;;;25.65;5.43;;;11.90;99.90;;;;;;5033480;28;20112;-73
2024/03/05 08:32:57;;;;;;;23.08;4.70;;;11.90;99.90;;;;;;5033883;28;20076;-72
2024/03/05 08:35:25;;;;;;;34.33;6.45;;;12.00;99.90;;;;;;5033698;28;20417;-73
2024/03/05 08:38:03;;;;;;;27.92;5.32;;;12.00;99.90;;;;;;5031882;28;20044;-73
2024/03/05 08:41:07;;;;;;;33.55;6.20;;;12.10;99.90;;;;;;5013977;28;20064;-72
2024/03/05 08:47:07;;;;;;;27.98;4.63;;;12.20;99.90;;;;;;4874756;29;20051;-72
2024/03/05 08:53:18;;;;;;;18.10;4.38;;;12.40;99.90;;;;;;4822069;29;20046;-73
2024/03/05 08:55:44;;;;;;;15.60;4.45;;;12.40;99.90;;;;;;4822251;29;20402;-73
2024/03/05 08:58:10;;;;;;;25.13;4.10;;;12.50;99.90;;;;;;4977481;28;20397;-73
2024/03/05 09:00:37;;;;;;;24.17;3.95;;;12.60;99.90;;;;;;5033269;28;20040;-73
2024/03/05 09:03:03;;;;;;;18.13;3.92;;;12.70;99.90;;;;;;5033114;28;20033;-73
2024/03/05 09:05:28;;;;;;;19.65;4.50;;;12.70;99.90;;;;;;5032132;28;20052;-72
2024/03/05 09:07:54;;;;;;;26.67;4.78;;;12.80;99.90;;;;;;5032894;28;20037;-72
2024/03/05 09:10:20;;;;;;;21.83;4.38;;;12.80;99.90;;;;;;5015020;28;20100;-72
2024/03/05 09:12:46;;;;;;;26.55;3.75;;;12.90;99.90;;;;;;5032370;28;20446;-73
2024/03/05 09:15:15;;;;;;;29.80;5.47;;;13.00;99.90;;;;;;5032880;28;20123;-73
2024/03/05 09:17:41;;;;;;;17.35;4.30;;;13.00;99.90;;;;;;5032584;28;20374;-73
2024/03/05 09:20:14;;;;;;;27.67;4.93;;;13.10;99.90;;;;;;5032661;28;20037;-73
2024/03/05 09:22:46;;;;;;;29.58;5.03;;;13.10;99.90;;;;;;5032492;28;20490;-73
2024/03/05 09:25:15;;;;;;;21.33;4.53;;;13.20;99.90;;;;;;5032766;28;20034;-73
2024/03/05 09:27:42;;;;;;;27.42;4.45;;;13.30;99.90;;;;;;5032977;28;20500;-73
2024/03/05 09:30:08;;;;;;;15.48;3.58;;;13.30;99.90;;;;;;5032804;28;20125;-73
2024/03/05 09:32:37;;;;;;;14.95;3.97;;;13.40;99.90;;;;;;5032935;28;20041;-72
2024/03/05 09:35:08;;;;;;;26.30;4.25;;;13.40;99.90;;;;;;5033055;28;20033;-73
2024/03/05 09:37:35;;;;;;;22.20;3.95;;;13.50;99.90;;;;;;5032831;28;20057;-73
2024/03/05 09:40:01;;;;;;;22.80;4.50;;;13.60;99.90;;;;;;5032588;28;20057;-73
2024/03/05 09:42:29;;;;;;;28.90;4.40;;;13.60;99.90;;;;;;5032812;28;20040;-73
2024/03/05 09:44:55;;;;;;;25.67;4.32;;;13.60;99.90;;;;;;5032703;28;20068;-73
2024/03/05 09:47:22;;;;;;;24.23;4.47;;;13.70;99.90;;;;;;5032331;28;20037;-72
2024/03/05 09:49:50;;;;;;;42.08;5.45;;;13.80;99.90;;;;;;5031963;28;20056;-73
2024/03/05 09:52:16;;;;;;;21.23;3.97;;;13.90;99.90;;;;;;5032179;28;20080;-73
2024/03/05 09:54:44;;;;;;;28.40;4.78;;;13.90;99.90;;;;;;5015162;28;20095;-73
2024/03/05 09:57:14;;;;;;;20.80;4.30;;;14.00;99.90;;;;;;5033478;28;20374;-73
2024/03/05 09:59:40;;;;;;;30.58;4.50;;;14.00;99.90;;;;;;5033288;28;20363;-73
2024/03/05 10:02:10;;;;;;;22.45;4.45;;;14.10;99.90;;;;;;5033262;28;20430;-73
2024/03/05 10:04:41;;;;;;;24.42;3.75;;;14.10;99.90;;;;;;5033269;28;20437;-73
2024/03/05 10:14:55;;;;;;;18.77;2.92;;;14.40;99.90;;;;;;4953070;29;20094;-73
2024/03/05 10:21:41;;;;;;;19.75;3.40;;;14.60;99.90;;;;;;4943339;28;20033;-73
2024/03/05 10:31:58;;;;;;;24.27;3.58;;;14.90;99.90;;;;;;4956456;29;20042;-73
2024/03/05 10:34:18;;;;;;;18.23;3.67;;;15.00;99.90;;;;;;4909700;28;20042;-73
2024/03/05 10:36:45;;;;;;;18.60;3.20;;;15.10;99.90;;;;;;4975634;28;20382;-73
2024/03/05 10:39:12;;;;;;;19.75;3.17;;;15.10;99.90;;;;;;5015817;28;20445;-73
2024/03/05 10:41:40;;;;;;;19.05;3.25;;;15.20;99.90;;;;;;5036463;28;20053;-73
2024/03/05 10:44:07;;;;;;;16.80;3.17;;;15.20;99.90;;;;;;5036247;28;20067;-73
2024/03/05 10:46:34;;;;;;;22.65;4.15;;;15.30;99.90;;;;;;5036085;28;20037;-73
2024/03/05 10:49:03;;;;;;;21.52;3.83;;;15.40;99.90;;;;;;5035781;28;20088;-73
2024/03/05 10:51:37;;;;;;;19.75;4.07;;;15.50;99.90;;;;;;5035593;28;20045;-74
2024/03/05 10:54:04;;;;;;;21.90;3.45;;;15.50;99.40;;;;;;5035933;28;20367;-73
2024/03/05 10:56:31;;;;;;;16.75;3.47;;;15.60;98.90;;;;;;5035844;28;20521;-73
2024/03/05 11:01:37;;;;;;;22.83;3.13;;;15.70;98.70;;;;;;5035648;28;20511;-73
2024/03/05 11:04:23;;;;;;;23.67;3.10;;;15.80;98.80;;;;;;5018083;28;20071;-73
2024/03/05 11:06:55;;;;;;;22.33;3.25;;;15.90;98.80;;;;;;5035801;28;20517;-73
2024/03/05 11:09:24;;;;;;;16.80;2.60;;;16.00;98.40;;;;;;5035649;28;20095;-73
2024/03/05 11:12:06;;;;;;;27.73;2.80;;;16.10;99.00;;;;;;5034725;28;20124;-73
2024/03/05 11:14:35;;;;;;;14.07;2.60;;;16.10;99.30;;;;;;5035734;28;20088;-72
2024/03/05 11:17:09;;;;;;;14.55;2.88;;;16.20;99.00;;;;;;5034792;28;20071;-73
2024/03/05 11:19:45;;;;;;;22.02;2.90;;;16.30;98.90;;;;;;5034724;28;20087;-73
2024/03/05 11:22:23;;;;;;;21.38;3.47;;;16.40;99.30;;;;;;5035579;28;20038;-74
2024/03/05 11:25:02;;;;;;;11.10;3.03;;;16.40;99.10;;;;;;5035517;28;20539;-73
2024/03/05 11:27:30;;;;;;;15.43;3.80;;;16.50;99.10;;;;;;5032878;28;20048;-73
2024/03/05 11:30:16;;;;;;;23.60;3.80;;;16.50;98.60;;;;;;5034252;28;20039;-73
2024/03/05 11:32:44;;;;;;;25.02;3.53;;;16.60;99.00;;;;;;5034153;28;20046;-73
2024/03/05 11:35:13;;;;;;;21.92;3.40;;;16.70;99.40;;;;;;5016719;28;20034;-73
2024/03/05 11:37:47;;;;;;;23.80;4.35;;;16.70;99.30;;;;;;5030377;28;20132;-73
2024/03/05 11:40:18;;;;;;;16.33;4.45;;;16.80;99.20;;;;;;5035664;28;20381;-73
2024/03/05 11:43:04;;;;;;;15.43;3.67;;;16.80;97.30;;;;;;5034893;28;20025;-74
2024/03/05 11:46:29;;;;;;;22.23;4.47;;;16.90;97.40;;;;;;5034011;28;20500;-75
2024/03/05 12:00:10;;;;;;;20.65;4.55;;;17.20;98.80;;;;;;4935756;29;20534;-71
2024/03/05 12:03:00;;;;;;;20.67;4.60;;;17.30;99.00;;;;;;4943674;28;20039;-72
2024/03/05 12:06:07;;;;;;;17.77;4.00;;;17.30;98.60;;;;;;4995414;28;20035;-72
2024/03/05 12:08:38;;;;;;;18.70;4.63;;;17.40;98.40;;;;;;4983349;28;20038;-72
2024/03/05 12:11:05;;;;;;;19.20;3.83;;;17.40;98.90;;;;;;4994531;28;20565;-72
2024/03/05 12:13:33;;;;;;;16.55;4.10;;;17.50;99.10;;;;;;4992395;28;20864;-72
2024/03/05 12:16:14;;;;;;;16.05;4.50;;;17.60;97.30;;;;;;4975343;28;20142;-72
2024/03/05 12:18:40;;;;;;;28.45;4.22;;;17.60;97.70;;;;;;4976175;28;20042;-72
2024/03/05 12:21:07;;;;;;;23.98;4.43;;;17.70;98.40;;;;;;4975410;28;20035;-72
2024/03/05 12:23:37;;;;;;;20.55;4.10;;;17.70;98.40;;;;;;4975703;28;20035;-72
2024/03/05 12:26:03;;;;;;;13.93;2.95;;;17.80;97.00;;;;;;4975564;28;20026;-72
2024/03/05 12:28:31;;;;;;;15.63;3.70;;;17.80;96.80;;;;;;4978209;28;20057;-72
2024/03/05 12:30:57;;;;;;;25.13;3.63;;;17.80;96.50;;;;;;4994878;28;20058;-72
2024/03/05 12:33:26;;;;;;;16.10;3.42;;;17.90;96.40;;;;;;4993455;28;20058;-72
2024/03/05 12:35:53;;;;;;;17.58;3.80;;;18.00;95.90;;;;;;4994802;28;20463;-72
2024/03/05 12:38:19;;;;;;;17.73;2.92;;;18.00;95.80;;;;;;4994603;28;20387;-72
2024/03/05 12:40:45;;;;;;;23.33;3.33;;;18.00;94.70;;;;;;4994072;28;20062;-72
2024/03/05 12:43:11;;;;;;;20.73;3.53;;;18.10;93.70;;;;;;4994223;28;20057;-71
2024/03/05 12:45:38;;;;;;;21.98;3.47;;;18.10;92.90;;;;;;4994567;28;20053;-72
2024/03/05 12:48:08;;;;;;;18.83;3.63;;;18.10;93.80;;;;;;4994651;28;20046;-71
2024/03/05 12:50:39;;;;;;;22.02;3.45;;;18.20;92.80;;;;;;5001312;28;20081;-72
2024/03/05 12:53:08;;;;;;;18.85;2.92;;;18.20;92.90;;;;;;5016189;28;20456;-72
2024/03/05 12:55:34;;;;;;;24.33;3.10;;;18.30;92.30;;;;;;5033634;28;20079;-72
2024/03/05 12:58:04;;;;;;;13.55;2.80;;;18.30;92.10;;;;;;5033142;28;20029;-72
2024/03/05 13:00:34;;;;;;;16.85;3.22;;;18.30;91.30;;;;;;5032628;28;20030;-72
2024/03/05 13:03:04;;;;;;;24.58;3.42;;;18.30;91.60;;;;;;5033686;28;20029;-71
2024/03/05 13:05:33;;;;;;;17.73;2.83;;;18.30;91.40;;;;;;5033697;28;20108;-72
2024/03/05 13:07:59;;;;;;;22.58;3.28;;;18.30;92.10;;;;;;5033867;28;20108;-72
2024/03/05 13:10:26;;;;;;;25.52;3.35;;;18.40;91.80;;;;;;5033596;28;20053;-72
2024/03/05 13:12:52;;;;;;;23.52;3.30;;;18.40;91.60;;;;;;5033835;28;20037;-72
2024/03/05 13:15:19;;;;;;;20.45;3.25;;;18.50;90.80;;;;;;5033395;28;20366;-71
2024/03/05 13:22:02;;;;;;;19.70;3.08;;;18.50;89.30;;;;;;4878096;29;20558;-72
2024/03/05 13:25:06;;;;;;;21.63;2.95;;;18.50;91.20;;;;;;4877853;29;20044;-72
2024/03/05 13:31:05;;;;;;;18.40;3.08;;;18.60;92.00;;;;;;4872488;29;20045;-71
2024/03/05 13:37:31;;;;;;;16.85;3.33;;;18.50;91.50;;;;;;4877407;29;20036;-73
2024/03/05 13:43:24;;;;;;;18.30;3.60;;;18.60;91.60;;;;;;4877573;29;20044;-70
2024/03/05 13:45:51;;;;;;;19.67;3.72;;;18.60;90.90;;;;;;4876968;29;20425;-70
2024/03/05 13:48:18;;;;;;;13.77;2.60;;;18.50;91.80;;;;;;4929562;28;20039;-70
2024/03/05 13:50:52;;;;;;;17.10;3.15;;;18.50;91.40;;;;;;4975929;28;20414;-71
2024/03/05 13:53:21;;;;;;;17.10;2.78;;;18.50;90.80;;;;;;5013425;28;20057;-71
2024/03/05 13:55:56;;;;;;;18.17;3.83;;;18.50;91.30;;;;;;4996212;28;20386;-71
2024/03/05 13:58:22;;;;;;;16.83;2.90;;;18.50;90.50;;;;;;5011987;28;20030;-71
2024/03/05 14:00:48;;;;;;;18.95;3.63;;;18.50;90.40;;;;;;5012227;28;20104;-71
2024/03/05 14:03:13;;;;;;;17.40;3.70;;;18.50;90.40;;;;;;5013028;28;20030;-70
2024/03/05 14:05:40;;;;;;;16.80;3.50;;;18.50;90.70;;;;;;5013018;28;20041;-71
2024/03/05 14:08:08;;;;;;;14.80;3.97;;;18.50;90.70;;;;;;5026927;28;20120;-71
2024/03/05 14:10:36;;;;;;;19.92;4.07;;;18.50;91.50;;;;;;5014586;28;20493;-71
2024/03/05 14:13:13;;;;;;;18.02;3.70;;;18.40;91.40;;;;;;5032657;28;20034;-71
2024/03/05 14:15:40;;;;;;;12.55;3.80;;;18.40;91.00;;;;;;5032764;28;20121;-70
2024/03/05 14:18:08;;;;;;;18.23;3.47;;;18.30;91.10;;;;;;5030529;28;20533;-71
2024/03/05 14:20:37;;;;;;;18.42;4.15;;;18.30;91.40;;;;;;5030949;28;20506;-71
2024/03/05 14:23:02;;;;;;;13.65;3.92;;;18.30;92.10;;;;;;5031411;28;20041;-71
2024/03/05 14:25:29;;;;;;;16.40;4.05;;;18.30;92.40;;;;;;5030797;28;20033;-72
2024/03/05 14:27:56;;;;;;;17.05;4.25;;;18.20;92.80;;;;;;5031079;28;20043;-73
2024/03/05 14:30:25;;;;;;;21.05;3.80;;;18.20;93.00;;;;;;5031601;28;20037;-73
2024/03/05 14:32:51;;;;;;;18.30;3.70;;;18.20;93.20;;;;;;5031587;28;20036;-72
2024/03/05 14:35:16;;;;;;;17.42;3.92;;;18.10;93.00;;;;;;5012690;28;20025;-71
2024/03/05 14:37:42;;;;;;;15.80;4.00;;;18.10;93.10;;;;;;5013765;28;20076;-72
2024/03/05 14:40:10;;;;;;;16.73;3.35;;;18.10;93.20;;;;;;5032320;28;20038;-70
2024/03/05 14:42:39;;;;;;;18.08;3.63;;;18.00;92.70;;;;;;5032427;28;20064;-72
2024/03/05 14:45:06;;;;;;;19.83;3.67;;;17.90;92.90;;;;;;5030132;28;20040;-71
2024/03/05 14:47:32;;;;;;;15.82;3.10;;;17.90;92.50;;;;;;5031295;28;20037;-71
2024/03/05 14:49:58;;;;;;;13.52;3.05;;;17.80;91.90;;;;;;5031395;28;20060;-72
2024/03/05 14:52:26;;;;;;;15.52;3.03;;;17.80;92.20;;;;;;5031227;28;20084;-72
2024/03/05 14:58:16;;;;;;;19.38;3.50;;;17.80;92.20;;;;;;4913172;29;20024;-71
2024/03/05 15:11:18;;;;;;;23.08;3.63;;;17.70;90.50;;;;;;4823844;29;19957;-72
2024/03/05 15:14:16;;;;;;;20.45;3.33;;;17.60;90.40;;;;;;4796168;29;20031;-73
2024/03/05 15:17:33;;;;;;;26.90;4.95;;;17.50;89.60;;;;;;4886479;29;20040;-72
2024/03/05 15:20:00;;;;;;;18.40;2.65;;;17.50;88.60;;;;;;4988641;28;20058;-72
2024/03/05 15:22:27;;;;;;;14.45;2.33;;;17.40;88.00;;;;;;4998050;28;20438;-72
2024/03/05 15:24:53;;;;;;;13.93;2.20;;;17.40;86.90;;;;;;5015427;28;20034;-73